This is the latest recevied weather packets stored in our database for station/object EA4URC-13. If no packets are shown the sender has not sent any weather packets the latest 10 day(s).
| Time | Temp. | Humidity | Pressure | Rain* | Wind** | Luminosity | Snow |
|---|---|---|---|---|---|---|---|
| 1777606163 | 12.22° C | 66% | 1010.8 hPa | - | - | - | - |
| 1777605254 | 11.67° C | 68% | 1011.1 hPa | - | - | - | - |
| 1777604354 | 11.67° C | 69% | 1011.2 hPa | - | - | - | - |
| 1777603454 | 12.22° C | 67% | 1010.8 hPa | - | - | - | - |
| 1777602554 | 12.22° C | 67% | 1010.9 hPa | - | - | - | - |
| 1777601649 | 12.22° C | 67% | 1010.8 hPa | - | - | - | - |
| 1777600749 | 12.22° C | 66% | 1011 hPa | - | - | - | - |
| 1777599850 | 12.22° C | 67% | 1011 hPa | - | - | - | - |
| 1777598950 | 12.78° C | 65% | 1010.7 hPa | - | - | - | - |
| 1777598050 | 12.22° C | 66% | 1011.1 hPa | - | - | - | - |
| 1777597150 | 12.22° C | 65% | 1011 hPa | - | - | - | - |
| 1777596250 | 12.78° C | 63% | 1010.8 hPa | - | - | - | - |
| 1777595350 | 12.22° C | 65% | 1011.4 hPa | - | - | - | - |
| 1777594450 | 12.78° C | 63% | 1010.9 hPa | - | - | - | - |
| 1777593550 | 13.89° C | 58% | 1010.5 hPa | - | - | - | - |
| 1777592650 | 13.33° C | 61% | 1010.6 hPa | - | - | - | - |
| 1777591750 | 13.89° C | 62% | 1010.3 hPa | - | - | - | - |
| 1777590849 | 13.33° C | 61% | 1010.3 hPa | - | - | - | - |
| 1777589949 | 13.33° C | 58% | 1010.4 hPa | - | - | - | - |
| 1777589050 | 13.33° C | 53% | 1010.4 hPa | - | - | - | - |
| 1777588150 | 15.56° C | 43% | 1009.4 hPa | - | - | - | - |
| 1777587250 | 17.22° C | 37% | 1008.4 hPa | - | - | - | - |
| 1777586349 | 17.22° C | 38% | 1008.3 hPa | - | - | - | - |
| 1777585449 | 17.22° C | 38% | 1008.3 hPa | - | - | - | - |
| 1777584535 | 17.22° C | 38% | 1008.4 hPa | - | - | - | - |
* Rain since midnight (hover to see other rain measurements)
** Current wind speed in m/s (hover to see current wind gust speed)